LPPTLPCS

Guest
Details From LPPT - Lisboa
To LPCS - Cascais
Flight Number -
Tags Routegen Generated
Created
Modified
Stats Distance 16 nm / 30 km
Max Altitude 100 ft / 30 m
Waypoints 5
Social Downloads 4
Likes 0
Share VATSIM

Download

Looking for another format? Having issues loading an existing format? Contact us
Advertisement - Login to hide

Notes

Departing runway 20 LPPT. Arriving runway 16 LPCS.

Route

LPPT +38.70_-009.18 +38.67_-009.25 +38.65_-009.33 LPCS

ID Type Via Altitude Latitude Longitude Leg Dist Tot Dist Heading (true) Name
O LPPT APT - 0 ft / 0 m 38.76569˚ -9.14438˚ - 0 nm - -
+38.70_-009.18 LATLON - 100 ft / 30 m 38.69893˚ -9.18019˚ 4 nm 4 nm 203° / 203° -
+38.67_-009.25 LATLON - 100 ft / 30 m 38.67425˚ -9.25395˚ 3 nm 8 nm 247° / 247° -
+38.65_-009.33 LATLON - 100 ft / 30 m 38.64957˚ -9.32770˚ 3 nm 11 nm 247° / 247° -
O LPCS APT - 0 ft / 0 m 38.71919˚ -9.35302˚ 4 nm 16 nm 344° / 344° -

Altitude Profile

Advertisement - Login to hide

LPPT

Details ICAO LPPT (LIS)
Name Lisboa
Region Portugal
Timezone Europe/Lisbon (UTC+0.0)
Stats Elevation 374 ft / 114 m (AMSL)
Location 38.778559° -9.135146°
Runways 2
Magnetic Variation 2.364° W

METAR

LPPT 160930Z 34011KT CAVOK 10/03 Q1024

Decode

TAF

TAF LPPT 160500Z 1606/1712 34010KT CAVOK BECMG 1609/1612 03008KT BECMG 1616/1619 34008KT BECMG 1700/1702 03008KT

Decode

Departure Runways

ID Width Length Bearing (true) Bearing (mag) Surface Threshold Offset Overrun Length
03 148 ft / 45 m 12,518 ft / 3,815 m 22.70° 25.06° Asphalt 296 ft / 90 m 0 ft / 0 m
17 148 ft / 45 m 7,922 ft / 2,415 m 168.38° 170.74° Asphalt 0 ft / 0 m 0 ft / 0 m
21 148 ft / 45 m 12,518 ft / 3,815 m 202.72° 205.08° Asphalt 1,969 ft / 600 m 0 ft / 0 m
35 148 ft / 45 m 7,922 ft / 2,415 m 348.38° 350.74° Asphalt 492 ft / 150 m 0 ft / 0 m

LPCS

Details ICAO LPCS
Name CASCAIS
Region Portugal
Timezone Europe/Lisbon (UTC+0.0)
Stats Elevation 326 ft / 99 m (AMSL)
Location 38.725175° -9.355256°
Runways 1
Magnetic Variation 2.435° W

METAR

LPCS 160930Z 01012KT 9999 FEW020 10/05 Q1024

Decode

TAF

Not found

Destination Runways

ID Width Length Bearing (true) Bearing (mag) Surface Threshold Offset Overrun Length
17 98 ft / 30 m 5,664 ft / 1,726 m 164.14° 166.57° Asphalt 354 ft / 108 m 0 ft / 0 m
35 98 ft / 30 m 5,664 ft / 1,726 m 344.14° 346.57° Asphalt 574 ft / 175 m 0 ft / 0 m

Popular Alternatives